createdAt,value
2023-09-06T00:00:57.622Z,6.50
2023-09-06T00:01:57.663Z,4.30
2023-09-06T00:02:57.600Z,7.70
2023-09-06T00:03:57.820Z,4.30
2023-09-06T00:04:57.703Z,5.90
2023-09-06T00:05:57.550Z,7.20
2023-09-06T00:06:57.649Z,7.70
2023-09-06T00:07:57.543Z,6.10
2023-09-06T00:08:57.550Z,7.20
2023-09-06T00:09:57.588Z,6.50
2023-09-06T00:10:57.508Z,4.70
2023-09-06T00:11:57.501Z,4.30
2023-09-06T00:12:57.532Z,5.50
2023-09-06T00:13:57.508Z,7.90
2023-09-06T00:14:57.478Z,5.50
2023-09-06T00:15:57.533Z,4.70
2023-09-06T00:16:57.577Z,6.80
2023-09-06T00:17:57.517Z,3.70
2023-09-06T00:18:57.501Z,4.80
2023-09-06T00:19:57.432Z,5.40
2023-09-06T00:20:57.441Z,3.20
2023-09-06T00:21:57.442Z,5.00
2023-09-06T00:22:57.441Z,6.10
2023-09-06T00:23:57.402Z,4.40
2023-09-06T00:24:57.434Z,6.70
2023-09-06T00:25:57.397Z,5.00
2023-09-06T00:26:57.379Z,5.10
2023-09-06T00:27:57.453Z,3.70
2023-09-06T00:28:57.370Z,6.30
2023-09-06T00:29:57.356Z,4.20
2023-09-06T00:30:57.415Z,5.40
2023-09-06T00:31:57.389Z,6.70
2023-09-06T00:32:57.383Z,6.50
2023-09-06T00:33:57.362Z,5.60
2023-09-06T00:34:57.309Z,3.60
2023-09-06T00:35:57.322Z,3.80
2023-09-06T00:36:57.320Z,4.70
2023-09-06T00:37:57.320Z,6.10
2023-09-06T00:38:57.278Z,4.70
2023-09-06T00:39:57.338Z,5.40
2023-09-06T00:40:57.275Z,4.20
2023-09-06T00:41:57.262Z,7.10
2023-09-06T00:42:57.285Z,6.00
2023-09-06T00:43:57.274Z,5.10
2023-09-06T00:44:57.240Z,4.10
2023-09-06T00:45:57.250Z,3.90
2023-09-06T00:46:57.336Z,5.90
2023-09-06T00:47:57.248Z,4.60
2023-09-06T00:48:57.224Z,5.10
2023-09-06T00:49:57.195Z,6.10
2023-09-06T00:50:57.185Z,4.10
2023-09-06T00:51:57.210Z,4.00
2023-09-06T00:52:57.201Z,4.90
2023-09-06T00:53:57.162Z,3.90
2023-09-06T00:54:57.220Z,4.10
2023-09-06T00:55:57.148Z,4.80
2023-09-06T00:56:57.170Z,4.10
2023-09-06T00:57:57.228Z,5.20
2023-09-06T00:58:57.128Z,6.30
2023-09-06T00:59:57.113Z,5.20
2023-09-06T01:00:57.188Z,5.80
2023-09-06T01:01:57.241Z,8.30
2023-09-06T01:02:57.174Z,6.90
2023-09-06T01:03:57.155Z,5.10
2023-09-06T01:04:57.080Z,5.80
2023-09-06T01:05:57.067Z,8.30
2023-09-06T01:06:57.138Z,4.90
2023-09-06T01:07:57.054Z,5.90
2023-09-06T01:08:57.195Z,9.00
2023-09-06T01:09:57.071Z,4.30
2023-09-06T01:10:57.058Z,5.80
2023-09-06T01:11:57.048Z,5.70
2023-09-06T01:12:57.063Z,5.40
2023-09-06T01:13:57.004Z,4.30
2023-09-06T01:14:57.031Z,4.10
2023-09-06T01:15:57.098Z,4.60
2023-09-06T01:16:57.194Z,7.10
2023-09-06T01:17:57.013Z,7.40
2023-09-06T01:18:57.000Z,5.70
2023-09-06T01:19:56.968Z,6.10
2023-09-06T01:20:56.980Z,7.60
2023-09-06T01:21:57.008Z,4.70
2023-09-06T01:22:56.953Z,5.70
2023-09-06T01:23:56.925Z,4.40
2023-09-06T01:24:56.974Z,5.90
2023-09-06T01:25:56.937Z,5.70
2023-09-06T01:26:56.924Z,5.10
2023-09-06T01:27:56.966Z,4.90
2023-09-06T01:28:56.896Z,4.30
2023-09-06T01:29:56.900Z,7.60
2023-09-06T01:30:56.973Z,6.00
2023-09-06T01:31:57.001Z,5.30
2023-09-06T01:32:56.858Z,3.90
2023-09-06T01:33:56.873Z,5.40
2023-09-06T01:34:56.867Z,9.50
2023-09-06T01:35:56.833Z,6.30
2023-09-06T01:36:56.876Z,5.30
2023-09-06T01:37:56.818Z,6.50
2023-09-06T01:38:56.798Z,4.60
2023-09-06T01:39:57.858Z,7.90
2023-09-06T01:40:56.881Z,4.80
2023-09-06T01:41:56.795Z,4.90
2023-09-06T01:42:56.778Z,5.30
2023-09-06T01:43:56.796Z,6.70
2023-09-06T01:44:56.784Z,8.20
2023-09-06T01:45:56.797Z,6.80
2023-09-06T01:46:56.811Z,4.40
2023-09-06T01:47:56.795Z,7.30
2023-09-06T01:48:56.795Z,6.20
2023-09-06T01:49:56.725Z,4.50
2023-09-06T01:50:56.717Z,7.30
2023-09-06T01:51:56.745Z,5.90
2023-09-06T01:52:56.699Z,6.80
2023-09-06T01:53:56.717Z,8.30
2023-09-06T01:54:56.759Z,5.50
2023-09-06T01:55:56.678Z,6.00
2023-09-06T01:56:56.671Z,4.00
2023-09-06T01:57:56.731Z,3.40
2023-09-06T01:58:56.688Z,5.00
2023-09-06T01:59:56.661Z,5.00
2023-09-06T02:00:57.670Z,8.00
2023-09-06T02:01:56.670Z,5.10
2023-09-06T02:02:56.784Z,3.70
2023-09-06T02:03:56.843Z,6.50
2023-09-06T02:04:56.613Z,6.90
2023-09-06T02:05:56.600Z,5.40
2023-09-06T02:06:56.639Z,3.50
2023-09-06T02:07:56.616Z,3.70
2023-09-06T02:08:56.581Z,7.50
2023-09-06T02:09:56.604Z,6.50
2023-09-06T02:10:56.569Z,5.10
2023-09-06T02:11:56.583Z,3.60
2023-09-06T02:12:56.611Z,4.70
2023-09-06T02:13:56.546Z,3.70
2023-09-06T02:14:56.538Z,5.20
2023-09-06T02:15:56.588Z,3.70
2023-09-06T02:16:56.584Z,3.40
2023-09-06T02:17:56.562Z,4.00
2023-09-06T02:18:56.531Z,4.10
2023-09-06T02:19:56.503Z,6.40
2023-09-06T02:20:56.487Z,5.40
2023-09-06T02:21:56.564Z,5.40
2023-09-06T02:22:56.477Z,4.70
2023-09-06T02:23:56.470Z,4.40
2023-09-06T02:24:56.543Z,4.80
2023-09-06T02:25:56.458Z,6.00
2023-09-06T02:26:56.476Z,3.80
2023-09-06T02:27:56.468Z,4.30
2023-09-06T02:28:56.441Z,4.50
2023-09-06T02:29:56.436Z,4.70
2023-09-06T02:30:56.445Z,4.50
2023-09-06T02:31:56.547Z,6.70
2023-09-06T02:32:57.033Z,5.10
2023-09-06T02:33:56.414Z,4.80
2023-09-06T02:34:56.392Z,4.40
2023-09-06T02:35:56.406Z,5.10
2023-09-06T02:36:56.422Z,3.70
2023-09-06T02:37:56.365Z,3.80
2023-09-06T02:38:56.356Z,5.20
2023-09-06T02:39:56.352Z,4.80
2023-09-06T02:40:56.364Z,5.90
2023-09-06T02:41:56.333Z,4.10
2023-09-06T02:42:56.343Z,5.30
2023-09-06T02:43:56.320Z,6.40
2023-09-06T02:44:56.333Z,3.40
2023-09-06T02:45:56.364Z,4.50
2023-09-06T02:46:56.320Z,2.70
2023-09-06T02:47:56.302Z,4.50
2023-09-06T02:48:56.277Z,3.90
2023-09-06T02:49:56.297Z,5.10
2023-09-06T02:50:56.321Z,3.60
2023-09-06T02:51:56.256Z,6.50
2023-09-06T02:52:56.248Z,4.60
2023-09-06T02:53:56.238Z,3.40
2023-09-06T02:54:56.305Z,4.20
2023-09-06T02:55:56.233Z,4.30
2023-09-06T02:56:56.216Z,3.50
2023-09-06T02:57:56.226Z,3.30
2023-09-06T02:58:56.226Z,3.30
2023-09-06T02:59:56.223Z,3.30
2023-09-06T03:00:56.315Z,5.00
2023-09-06T03:01:56.198Z,5.70
2023-09-06T03:02:57.249Z,3.00
2023-09-06T03:03:56.245Z,5.50
2023-09-06T03:04:56.160Z,2.70
2023-09-06T03:05:56.144Z,4.10
2023-09-06T03:06:56.172Z,4.50
2023-09-06T03:07:56.158Z,4.80
2023-09-06T03:08:56.161Z,5.90
2023-09-06T03:09:56.154Z,3.90
2023-09-06T03:10:56.104Z,4.60
2023-09-06T03:11:56.104Z,4.80
2023-09-06T03:12:56.207Z,3.90
2023-09-06T03:13:56.106Z,5.40
2023-09-06T03:14:56.072Z,4.10
2023-09-06T03:15:56.100Z,4.30
2023-09-06T03:16:56.128Z,3.40
2023-09-06T03:17:56.109Z,3.20
2023-09-06T03:18:56.045Z,4.00
2023-09-06T03:19:56.032Z,4.10
2023-09-06T03:20:56.027Z,4.00
2023-09-06T03:21:56.019Z,6.00
2023-09-06T03:22:56.041Z,5.10
2023-09-06T03:23:56.001Z,4.70
2023-09-06T03:24:55.995Z,4.10
2023-09-06T03:25:56.515Z,4.80
2023-09-06T03:26:55.979Z,5.40
2023-09-06T03:27:55.999Z,5.70
2023-09-06T03:28:55.968Z,4.00
2023-09-06T03:29:55.955Z,3.60
2023-09-06T03:30:55.967Z,4.50
2023-09-06T03:31:56.054Z,4.30
2023-09-06T03:32:56.011Z,6.10
2023-09-06T03:33:55.922Z,5.10
2023-09-06T03:34:55.918Z,3.60
2023-09-06T03:35:55.997Z,6.30
2023-09-06T03:36:55.930Z,7.80
2023-09-06T03:37:56.007Z,5.90
2023-09-06T03:38:55.898Z,5.60
2023-09-06T03:39:55.881Z,4.90
2023-09-06T03:40:55.953Z,3.30
2023-09-06T03:41:55.894Z,3.60
2023-09-06T03:42:55.868Z,4.80
2023-09-06T03:43:55.859Z,4.00
2023-09-06T03:44:55.851Z,3.50
2023-09-06T03:45:55.869Z,4.20
2023-09-06T03:46:55.934Z,4.30
2023-09-06T03:47:56.032Z,4.80
2023-09-06T03:48:55.905Z,3.50
2023-09-06T03:49:55.808Z,4.90
2023-09-06T03:50:55.844Z,6.90
2023-09-06T03:51:55.798Z,4.80
2023-09-06T03:52:55.839Z,3.30
2023-09-06T03:53:55.769Z,5.60
2023-09-06T03:54:55.762Z,3.30
2023-09-06T03:55:55.803Z,3.20
2023-09-06T03:56:55.755Z,4.50
2023-09-06T03:57:55.748Z,3.40
2023-09-06T03:58:55.748Z,2.70
2023-09-06T03:59:55.753Z,4.40
2023-09-06T04:00:55.758Z,3.40
2023-09-06T04:01:55.793Z,4.40
2023-09-06T04:02:55.861Z,5.70
2023-09-06T04:03:55.830Z,2.40
2023-09-06T04:04:55.742Z,4.90
2023-09-06T04:05:55.688Z,5.10
2023-09-06T04:06:55.692Z,3.50
2023-09-06T04:07:55.733Z,5.40
2023-09-06T04:08:55.756Z,4.40
2023-09-06T04:09:55.683Z,3.70
2023-09-06T04:10:55.660Z,2.80
2023-09-06T04:11:55.640Z,4.60
2023-09-06T04:12:55.709Z,3.00
2023-09-06T04:13:55.625Z,4.50
2023-09-06T04:14:55.648Z,3.20
2023-09-06T04:15:55.616Z,3.60
2023-09-06T04:16:55.653Z,5.10
2023-09-06T04:17:55.693Z,4.30
2023-09-06T04:18:55.635Z,5.60
2023-09-06T04:19:56.254Z,4.50
2023-09-06T04:20:56.569Z,7.00
2023-09-06T04:21:55.559Z,4.80
2023-09-06T04:22:55.571Z,5.70
2023-09-06T04:23:55.577Z,3.40
2023-09-06T04:24:55.556Z,4.30
2023-09-06T04:25:56.574Z,2.90
2023-09-06T04:26:55.519Z,4.30
2023-09-06T04:27:55.520Z,3.00
2023-09-06T04:28:55.543Z,8.10
2023-09-06T04:29:55.506Z,4.00
2023-09-06T04:30:55.538Z,4.40
2023-09-06T04:31:55.523Z,3.10
2023-09-06T04:32:55.544Z,4.90
2023-09-06T04:33:55.486Z,5.90
2023-09-06T04:34:55.477Z,3.60
2023-09-06T04:35:55.461Z,8.40
2023-09-06T04:36:55.448Z,9.90
2023-09-06T04:37:55.479Z,12.20
2023-09-06T04:38:55.428Z,6.00
2023-09-06T04:39:55.425Z,11.10
2023-09-06T04:40:55.486Z,10.70
2023-09-06T04:41:55.403Z,6.20
2023-09-06T04:42:55.420Z,9.10
2023-09-06T04:43:55.450Z,8.90
2023-09-06T04:44:55.382Z,9.40
2023-09-06T04:45:55.372Z,12.50
2023-09-06T04:46:55.407Z,8.50
2023-09-06T04:47:55.409Z,12.90
2023-09-06T04:48:55.392Z,13.40
2023-09-06T04:49:55.339Z,10.80
2023-09-06T04:50:55.329Z,9.20
2023-09-06T04:51:55.358Z,8.20
2023-09-06T04:52:55.423Z,10.90
2023-09-06T04:53:55.322Z,13.60
2023-09-06T04:54:55.300Z,14.20
2023-09-06T04:55:55.295Z,6.80
2023-09-06T04:56:55.333Z,7.70
2023-09-06T04:57:55.285Z,8.30
2023-09-06T04:58:55.271Z,9.40
2023-09-06T04:59:55.272Z,6.90
2023-09-06T05:00:55.303Z,6.80
2023-09-06T05:01:55.270Z,6.80
2023-09-06T05:02:55.345Z,7.10
2023-09-06T05:03:55.338Z,5.40
2023-09-06T05:04:55.231Z,10.00
2023-09-06T05:05:55.292Z,9.00
2023-09-06T05:06:55.237Z,8.80
2023-09-06T05:07:55.202Z,8.50
2023-09-06T05:08:55.201Z,10.50
2023-09-06T05:09:55.190Z,6.40
2023-09-06T05:10:55.204Z,6.20
2023-09-06T05:11:55.177Z,8.00
2023-09-06T05:12:55.165Z,6.90
2023-09-06T05:13:55.194Z,8.80
2023-09-06T05:14:55.148Z,6.10
2023-09-06T05:15:55.163Z,9.30
2023-09-06T05:16:55.186Z,8.50
2023-09-06T05:17:55.163Z,6.60
2023-09-06T05:18:55.130Z,9.10
2023-09-06T05:19:55.131Z,9.30
2023-09-06T05:20:55.124Z,9.10
2023-09-06T05:21:55.093Z,13.00
2023-09-06T05:22:55.112Z,8.60
2023-09-06T05:23:55.076Z,7.50
2023-09-06T05:24:55.134Z,15.40
2023-09-06T05:25:55.066Z,11.90
2023-09-06T05:26:55.053Z,8.80
2023-09-06T05:27:55.128Z,8.60
2023-09-06T05:28:55.039Z,6.90
2023-09-06T05:29:55.063Z,6.50
2023-09-06T05:30:55.058Z,9.40
2023-09-06T05:31:55.064Z,7.40
2023-09-06T05:32:55.054Z,4.70
2023-09-06T05:33:55.040Z,6.60
2023-09-06T05:34:55.020Z,3.60
2023-09-06T05:35:54.984Z,3.80
2023-09-06T05:36:54.988Z,4.50
2023-09-06T05:37:55.022Z,5.80
2023-09-06T05:38:54.987Z,4.00
2023-09-06T05:39:54.947Z,6.30
2023-09-06T05:40:54.961Z,10.70
2023-09-06T05:41:54.940Z,9.50
2023-09-06T05:42:54.927Z,4.20
2023-09-06T05:43:54.961Z,6.10
2023-09-06T05:44:54.913Z,4.80
2023-09-06T05:45:54.957Z,3.70
2023-09-06T05:46:55.085Z,6.00
2023-09-06T05:47:55.135Z,5.30
2023-09-06T05:48:54.971Z,8.70
2023-09-06T05:49:54.992Z,10.30
2023-09-06T05:50:54.934Z,5.70
2023-09-06T05:51:54.981Z,14.80
2023-09-06T05:52:54.967Z,8.30
2023-09-06T05:53:54.925Z,18.50
2023-09-06T05:55:54.957Z,7.60
2023-09-06T05:56:54.825Z,13.60
2023-09-06T05:57:54.861Z,10.30
2023-09-06T05:58:54.825Z,10.40
2023-09-06T05:59:54.811Z,10.60
2023-09-06T06:00:54.803Z,11.70
2023-09-06T06:01:54.851Z,10.00
2023-09-06T06:02:54.880Z,11.70
2023-09-06T06:03:55.837Z,9.60
2023-09-06T06:04:54.825Z,15.70
2023-09-06T06:05:54.765Z,18.90
2023-09-06T06:06:54.777Z,12.60
2023-09-06T06:07:54.774Z,14.70
2023-09-06T06:08:54.786Z,21.50
2023-09-06T06:09:54.732Z,27.40
2023-09-06T06:10:54.743Z,10.20
2023-09-06T06:11:54.742Z,27.10
2023-09-06T06:12:54.709Z,12.20
2023-09-06T06:14:08.149Z,24.10
2023-09-06T06:14:56.693Z,9.80
2023-09-06T06:15:54.692Z,24.00
2023-09-06T06:16:54.724Z,10.90
2023-09-06T06:17:54.698Z,18.20
2023-09-06T06:18:54.669Z,8.00
2023-09-06T06:19:54.735Z,11.20
2023-09-06T06:20:54.677Z,8.90
2023-09-06T06:21:54.663Z,12.40
2023-09-06T06:22:54.630Z,13.90
2023-09-06T06:23:54.628Z,13.30
2023-09-06T06:24:54.673Z,9.90
2023-09-06T06:25:54.670Z,16.40
2023-09-06T06:26:54.601Z,6.50
2023-09-06T06:27:54.714Z,12.20
2023-09-06T06:28:54.728Z,39.20
2023-09-06T06:29:54.638Z,34.10
2023-09-06T06:30:54.602Z,49.90
2023-09-06T06:31:54.766Z,26.80
2023-09-06T06:32:54.624Z,41.60
2023-09-06T06:33:54.560Z,27.40
2023-09-06T06:34:54.582Z,12.60
2023-09-06T06:35:54.594Z,7.30
2023-09-06T06:36:54.518Z,4.90
2023-09-06T06:37:54.551Z,9.00
2023-09-06T06:38:54.508Z,30.40
2023-09-06T06:39:54.538Z,28.10
2023-09-06T06:40:54.561Z,13.00
2023-09-06T06:41:54.490Z,10.30
2023-09-06T06:42:54.483Z,12.80
2023-09-06T06:43:54.501Z,14.30
2023-09-06T06:44:54.483Z,11.30
2023-09-06T06:45:54.491Z,21.60
2023-09-06T06:46:54.484Z,17.90
2023-09-06T06:47:54.483Z,18.70
2023-09-06T06:48:55.438Z,13.80
2023-09-06T06:49:54.511Z,10.90
2023-09-06T06:50:54.503Z,13.80
2023-09-06T06:51:54.404Z,16.60
2023-09-06T06:52:54.477Z,3.10
2023-09-06T06:53:54.419Z,9.40
2023-09-06T06:54:54.410Z,10.30
2023-09-06T06:55:54.406Z,9.30
2023-09-06T06:56:54.386Z,12.90
2023-09-06T06:57:54.353Z,4.60
2023-09-06T06:58:54.429Z,5.80
2023-09-06T06:59:54.352Z,3.20
2023-09-06T07:00:54.430Z,19.10
2023-09-06T07:01:54.367Z,10.50
2023-09-06T07:02:54.366Z,7.50
2023-09-06T07:03:54.447Z,10.70
2023-09-06T07:04:56.259Z,7.10
2023-09-06T07:05:54.293Z,9.50
2023-09-06T07:06:54.297Z,16.20
2023-09-06T07:07:54.327Z,7.20
2023-09-06T07:08:54.279Z,13.10
2023-09-06T07:09:54.271Z,5.30
2023-09-06T07:10:54.294Z,8.00
2023-09-06T07:11:54.254Z,11.30
2023-09-06T07:12:54.270Z,3.60
2023-09-06T07:13:54.340Z,13.20
2023-09-06T07:14:54.241Z,12.70
2023-09-06T07:15:54.255Z,18.90
2023-09-06T07:16:54.387Z,15.90
2023-09-06T07:17:54.322Z,5.40
2023-09-06T07:18:54.204Z,5.50
2023-09-06T07:19:54.246Z,7.60
2023-09-06T07:20:54.193Z,4.40
2023-09-06T07:21:54.235Z,7.40
2023-09-06T07:22:54.195Z,4.20
2023-09-06T07:23:54.162Z,6.70
2023-09-06T07:24:54.167Z,6.80
2023-09-06T07:25:54.154Z,8.70
2023-09-06T07:26:54.159Z,7.50
2023-09-06T07:27:54.146Z,1.90
2023-09-06T07:28:54.166Z,2.60
2023-09-06T07:29:54.122Z,2.90
2023-09-06T07:30:54.168Z,5.10
2023-09-06T07:31:54.132Z,5.70
2023-09-06T07:32:54.132Z,3.20
2023-09-06T07:33:54.123Z,2.20
2023-09-06T07:34:54.096Z,2.80
2023-09-06T07:35:54.109Z,4.30
2023-09-06T07:36:54.074Z,2.90
2023-09-06T07:37:54.060Z,5.10
2023-09-06T07:38:54.048Z,2.40
2023-09-06T07:39:54.043Z,2.90
2023-09-06T07:40:54.066Z,3.10
2023-09-06T07:41:54.024Z,1.80
2023-09-06T07:42:54.044Z,2.00
2023-09-06T07:43:54.015Z,2.80
2023-09-06T07:44:54.034Z,2.00
2023-09-06T07:45:54.071Z,2.10
2023-09-06T07:46:54.094Z,1.90
2023-09-06T07:47:54.059Z,2.30
2023-09-06T07:48:54.369Z,2.00
2023-09-06T07:49:53.987Z,2.90
2023-09-06T07:50:54.008Z,2.40
2023-09-06T07:51:53.961Z,6.50
2023-09-06T07:52:53.971Z,3.50
2023-09-06T07:53:53.939Z,5.20
2023-09-06T07:54:53.958Z,2.20
2023-09-06T07:55:53.939Z,1.90
2023-09-06T07:56:53.911Z,2.80
2023-09-06T07:57:53.905Z,3.50
2023-09-06T07:58:53.909Z,3.40
2023-09-06T07:59:53.917Z,2.60
2023-09-06T08:01:06.148Z,3.00
2023-09-06T08:01:55.925Z,1.80
2023-09-06T08:02:53.922Z,3.30
2023-09-06T08:03:53.964Z,2.10
2023-09-06T08:04:54.097Z,1.90
2023-09-06T08:05:53.920Z,3.10
2023-09-06T08:06:54.045Z,4.70
2023-09-06T08:07:53.839Z,2.90
2023-09-06T08:08:53.926Z,2.40
2023-09-06T08:09:53.863Z,2.70
2023-09-06T08:10:53.818Z,3.20
2023-09-06T08:11:53.830Z,4.90
2023-09-06T08:12:53.807Z,2.00
2023-09-06T08:13:53.882Z,2.50
2023-09-06T08:14:53.864Z,4.20
2023-09-06T08:15:53.796Z,2.30
2023-09-06T08:16:53.844Z,3.00
2023-09-06T08:17:53.904Z,2.30
2023-09-06T08:18:53.837Z,2.30
2023-09-06T08:19:53.768Z,2.20
2023-09-06T08:20:53.831Z,5.00
2023-09-06T08:21:53.752Z,4.20
2023-09-06T08:22:53.774Z,4.30
2023-09-06T08:23:53.759Z,2.10
2023-09-06T08:24:53.740Z,2.80
2023-09-06T08:25:53.728Z,2.40
2023-09-06T08:26:53.733Z,3.60
2023-09-06T08:27:53.742Z,2.30
2023-09-06T08:28:53.698Z,2.90
2023-09-06T08:29:54.799Z,4.40
2023-09-06T08:30:53.781Z,2.30
2023-09-06T08:31:53.760Z,3.90
2023-09-06T08:32:53.754Z,2.80
2023-09-06T08:33:53.809Z,2.40
2023-09-06T08:34:53.672Z,3.20
2023-09-06T08:35:53.666Z,4.30
2023-09-06T08:36:53.680Z,3.50
2023-09-06T08:37:53.675Z,4.10
2023-09-06T08:38:53.646Z,2.70
2023-09-06T08:39:53.767Z,3.50
2023-09-06T08:40:53.639Z,5.90
2023-09-06T08:41:53.688Z,3.20
2023-09-06T08:42:53.636Z,4.80
2023-09-06T08:43:53.618Z,4.60
2023-09-06T08:44:53.615Z,2.50
2023-09-06T08:45:54.011Z,3.40
2023-09-06T08:46:53.749Z,2.80
2023-09-06T08:47:53.694Z,4.00
2023-09-06T08:48:53.700Z,3.70
2023-09-06T08:49:53.588Z,3.00
2023-09-06T08:50:56.173Z,4.40
2023-09-06T08:51:54.603Z,3.60
2023-09-06T08:52:53.561Z,3.30
2023-09-06T08:53:53.569Z,3.50
2023-09-06T08:54:53.622Z,3.80
2023-09-06T08:55:53.574Z,4.20
2023-09-06T08:56:53.569Z,4.30
2023-09-06T08:57:53.545Z,3.20
2023-09-06T08:58:53.530Z,4.90
2023-09-06T08:59:53.523Z,3.40
2023-09-06T09:00:53.630Z,2.60
2023-09-06T09:01:53.548Z,2.80
2023-09-06T09:02:53.667Z,3.30
2023-09-06T09:03:53.677Z,4.60
2023-09-06T09:05:00.141Z,3.50
2023-09-06T09:05:54.517Z,2.40
2023-09-06T09:06:53.517Z,4.30
2023-09-06T09:07:53.478Z,3.40
2023-09-06T09:08:53.470Z,4.70
2023-09-06T09:09:53.553Z,4.50
2023-09-06T09:10:53.488Z,3.80
2023-09-06T09:11:53.456Z,3.60
2023-09-06T09:12:53.575Z,4.90
2023-09-06T09:13:53.441Z,2.90
2023-09-06T09:14:53.461Z,3.90
2023-09-06T09:15:53.528Z,4.00
2023-09-06T09:16:53.458Z,2.70
2023-09-06T09:18:00.953Z,3.90
2023-09-06T09:18:55.422Z,4.10
2023-09-06T09:19:53.435Z,4.00
2023-09-06T09:20:53.408Z,3.80
2023-09-06T09:21:53.394Z,3.00
2023-09-06T09:22:53.414Z,2.60
2023-09-06T09:23:53.407Z,2.80
2023-09-06T09:24:53.426Z,3.80
2023-09-06T09:25:53.368Z,4.90
2023-09-06T09:26:53.371Z,2.90
2023-09-06T09:27:53.421Z,3.70
2023-09-06T09:28:53.384Z,6.00
2023-09-06T09:29:53.338Z,3.00
2023-09-06T09:30:53.387Z,4.10
2023-09-06T09:31:53.333Z,3.10
2023-09-06T09:32:53.366Z,2.50
2023-09-06T09:33:53.388Z,4.10
2023-09-06T09:34:53.317Z,4.10
2023-09-06T09:35:53.323Z,5.50
2023-09-06T09:36:53.338Z,2.80
2023-09-06T09:37:53.299Z,3.20
2023-09-06T09:38:53.309Z,3.30
2023-09-06T09:39:53.291Z,3.10
2023-09-06T09:40:53.979Z,3.30
2023-09-06T09:41:59.565Z,2.60
2023-09-06T09:42:55.283Z,3.50
2023-09-06T09:43:53.283Z,4.40
2023-09-06T09:44:53.253Z,2.50
2023-09-06T09:45:53.289Z,3.00
2023-09-06T09:46:53.255Z,2.90
2023-09-06T09:47:54.298Z,4.30
2023-09-06T09:48:54.220Z,3.80
2023-09-06T09:49:53.257Z,2.50
2023-09-06T09:50:53.213Z,4.50
2023-09-06T09:51:53.209Z,3.60
2023-09-06T09:52:53.213Z,3.40
2023-09-06T09:53:53.194Z,5.00
2023-09-06T09:54:53.229Z,2.40
2023-09-06T09:55:53.179Z,2.80
2023-09-06T09:56:53.201Z,3.40
2023-09-06T09:57:53.218Z,3.30
2023-09-06T09:58:53.157Z,3.50
2023-09-06T09:59:53.228Z,3.30
2023-09-06T10:00:53.177Z,4.40
2023-09-06T10:01:53.220Z,3.20
2023-09-06T10:02:53.277Z,2.90
2023-09-06T10:03:53.160Z,2.40
2023-09-06T10:04:53.208Z,2.90
2023-09-06T10:05:53.117Z,2.20
2023-09-06T10:06:53.126Z,4.10
2023-09-06T10:07:53.091Z,4.20
2023-09-06T10:08:53.093Z,3.30
2023-09-06T10:09:53.113Z,2.40
2023-09-06T10:10:53.071Z,2.20
2023-09-06T10:11:53.093Z,3.50
2023-09-06T10:12:53.088Z,2.70
2023-09-06T10:13:53.893Z,2.40
2023-09-06T10:14:53.050Z,2.60
2023-09-06T10:15:53.125Z,2.00
2023-09-06T10:16:53.089Z,2.90
2023-09-06T10:17:53.101Z,2.10
2023-09-06T10:18:53.111Z,3.20
2023-09-06T10:19:54.862Z,4.50
2023-09-06T10:20:54.044Z,2.80
2023-09-06T10:21:53.001Z,2.30
2023-09-06T10:22:53.018Z,2.40
2023-09-06T10:23:52.989Z,2.60
2023-09-06T10:24:53.021Z,3.70
2023-09-06T10:25:52.990Z,3.70
2023-09-06T10:26:52.957Z,5.00
2023-09-06T10:27:52.974Z,3.80
2023-09-06T10:28:52.945Z,2.60
2023-09-06T10:30:03.529Z,3.30
2023-09-06T10:30:55.010Z,2.50
2023-09-06T10:31:52.991Z,4.80
2023-09-06T10:32:52.957Z,3.20
2023-09-06T10:33:52.909Z,4.50
2023-09-06T10:34:52.927Z,3.50
2023-09-06T10:35:52.944Z,2.40
2023-09-06T10:36:52.977Z,3.50
2023-09-06T10:37:52.870Z,3.60
2023-09-06T10:38:52.953Z,3.50
2023-09-06T10:39:52.929Z,3.60
2023-09-06T10:40:52.872Z,5.70
2023-09-06T10:41:52.847Z,2.80
2023-09-06T10:42:52.845Z,2.60
2023-09-06T10:43:52.817Z,2.20
2023-09-06T10:44:53.868Z,2.70
2023-09-06T10:45:52.873Z,2.50
2023-09-06T10:46:52.950Z,2.20
2023-09-06T10:47:52.857Z,4.30
2023-09-06T10:48:52.854Z,4.40
2023-09-06T10:49:52.815Z,4.40
2023-09-06T10:50:52.774Z,5.30
2023-09-06T10:51:52.799Z,3.10
2023-09-06T10:52:52.782Z,3.10
2023-09-06T10:53:52.782Z,2.50
2023-09-06T10:54:52.769Z,2.50
2023-09-06T10:55:52.785Z,4.50
2023-09-06T10:56:52.745Z,5.00
2023-09-06T10:57:52.730Z,4.20
2023-09-06T10:58:52.743Z,2.60
2023-09-06T10:59:52.733Z,3.80
2023-09-06T11:00:52.847Z,2.60
2023-09-06T11:01:56.419Z,3.00
2023-09-06T11:02:53.848Z,3.50
2023-09-06T11:03:52.777Z,2.50
2023-09-06T11:04:52.686Z,3.70
2023-09-06T11:05:52.679Z,2.50
2023-09-06T11:06:52.760Z,3.20
2023-09-06T11:07:52.730Z,2.90
2023-09-06T11:08:52.659Z,3.10
2023-09-06T11:09:52.666Z,2.70
2023-09-06T11:10:52.635Z,3.10
2023-09-06T11:11:52.625Z,3.70
2023-09-06T11:12:52.673Z,3.70
2023-09-06T11:13:52.617Z,3.60
2023-09-06T11:14:52.601Z,3.80
2023-09-06T11:15:52.646Z,2.50
2023-09-06T11:16:52.589Z,2.60
2023-09-06T11:17:52.685Z,2.60
2023-09-06T11:18:52.565Z,3.90
2023-09-06T11:19:52.571Z,2.80
2023-09-06T11:20:52.610Z,5.60
2023-09-06T11:21:52.578Z,5.10
2023-09-06T11:22:52.564Z,4.00
2023-09-06T11:23:52.531Z,2.60
2023-09-06T11:24:52.546Z,3.40
2023-09-06T11:25:52.521Z,4.80
2023-09-06T11:26:52.532Z,2.80
2023-09-06T11:27:52.514Z,2.60
2023-09-06T11:28:52.535Z,3.20
2023-09-06T11:29:52.492Z,4.70
2023-09-06T11:30:52.483Z,3.10
2023-09-06T11:31:52.501Z,4.10
2023-09-06T11:32:52.532Z,2.90
2023-09-06T11:33:52.473Z,3.00
2023-09-06T11:34:52.452Z,3.80
2023-09-06T11:35:52.459Z,3.40
2023-09-06T11:36:52.466Z,2.90
2023-09-06T11:37:52.426Z,4.20
2023-09-06T11:38:52.419Z,2.90
2023-09-06T11:39:52.427Z,3.10
2023-09-06T11:40:52.416Z,15.80
2023-09-06T11:41:52.410Z,3.20
2023-09-06T11:43:25.325Z,3.90
2023-09-06T11:43:52.378Z,4.30
2023-09-06T11:44:52.365Z,3.50
2023-09-06T11:45:52.416Z,3.80
2023-09-06T11:46:52.433Z,3.10
2023-09-06T11:47:52.389Z,3.20
2023-09-06T11:48:52.461Z,3.70
2023-09-06T11:49:52.377Z,2.70
2023-09-06T11:50:52.353Z,3.70
2023-09-06T11:51:52.311Z,3.80
2023-09-06T11:52:58.528Z,3.00
2023-09-06T11:53:54.297Z,4.50
2023-09-06T11:54:52.314Z,4.00
2023-09-06T11:55:52.310Z,5.60
2023-09-06T11:56:52.411Z,4.10
2023-09-06T11:57:52.284Z,3.00
2023-09-06T11:58:52.244Z,4.40
2023-09-06T11:59:52.267Z,4.30
2023-09-06T12:00:52.697Z,3.30
2023-09-06T12:01:52.308Z,3.00
2023-09-06T12:02:52.287Z,6.20
2023-09-06T12:03:52.341Z,3.40
2023-09-06T12:04:52.225Z,4.40
2023-09-06T12:05:52.263Z,3.60
2023-09-06T12:06:52.302Z,3.40
2023-09-06T12:07:52.182Z,5.90
2023-09-06T12:08:52.225Z,6.30
2023-09-06T12:09:52.191Z,3.30
2023-09-06T12:10:52.157Z,4.10
2023-09-06T12:11:52.180Z,3.10
2023-09-06T12:12:52.143Z,3.00
2023-09-06T12:13:52.168Z,5.40
2023-09-06T12:14:52.183Z,4.10
2023-09-06T12:15:52.137Z,5.00
2023-09-06T12:16:52.224Z,5.50
2023-09-06T12:17:52.171Z,3.90
2023-09-06T12:18:52.189Z,3.20
2023-09-06T12:19:52.088Z,5.40
2023-09-06T12:20:52.115Z,3.10
2023-09-06T12:21:52.086Z,3.50
2023-09-06T12:22:52.070Z,3.90
2023-09-06T12:23:52.107Z,2.30
2023-09-06T12:24:52.056Z,3.30
2023-09-06T12:25:52.043Z,2.90
2023-09-06T12:26:52.070Z,6.60
2023-09-06T12:27:52.058Z,3.50
2023-09-06T12:28:52.044Z,4.30
2023-09-06T12:29:52.064Z,4.60
2023-09-06T12:30:52.121Z,2.60
2023-09-06T12:31:52.000Z,2.70
2023-09-06T12:32:52.048Z,3.10
2023-09-06T12:33:52.024Z,3.30
2023-09-06T12:34:51.977Z,3.60
2023-09-06T12:35:51.982Z,3.30
2023-09-06T12:36:51.965Z,4.40
2023-09-06T12:37:51.979Z,2.80
2023-09-06T12:38:51.953Z,3.50
2023-09-06T12:39:51.937Z,2.80
2023-09-06T12:40:51.934Z,3.40
2023-09-06T12:41:51.972Z,2.20
2023-09-06T12:42:51.953Z,4.60
2023-09-06T12:43:51.914Z,2.60
2023-09-06T12:44:51.977Z,2.30
2023-09-06T12:45:51.892Z,3.10
2023-09-06T12:46:51.946Z,3.20
2023-09-06T12:47:51.989Z,3.50
2023-09-06T12:48:52.965Z,3.50
2023-09-06T12:49:51.868Z,4.30
2023-09-06T12:50:52.412Z,3.60
2023-09-06T12:51:51.860Z,2.50
2023-09-06T12:52:51.864Z,5.20
2023-09-06T12:53:51.873Z,2.30
2023-09-06T12:54:51.834Z,6.00
2023-09-06T12:55:51.865Z,5.40
2023-09-06T12:56:51.853Z,2.60
2023-09-06T12:57:51.874Z,5.20
2023-09-06T12:58:51.791Z,5.00
2023-09-06T12:59:51.793Z,3.00
2023-09-06T13:00:51.833Z,4.50
2023-09-06T13:01:51.919Z,3.60
2023-09-06T13:02:51.772Z,3.10
2023-09-06T13:03:51.864Z,3.20
2023-09-06T13:04:51.864Z,3.50
2023-09-06T13:05:51.791Z,3.00
2023-09-06T13:06:51.767Z,2.60
2023-09-06T13:07:51.730Z,1.90
2023-09-06T13:08:51.719Z,2.40
2023-09-06T13:09:51.710Z,3.90
2023-09-06T13:10:51.745Z,2.60
2023-09-06T13:11:51.732Z,4.60
2023-09-06T13:12:51.687Z,3.40
2023-09-06T13:13:51.708Z,4.20
2023-09-06T13:14:51.694Z,2.10
2023-09-06T13:15:51.748Z,5.40
2023-09-06T13:16:51.753Z,4.80